createdAt,value
2023-04-10T00:00:33.029Z,100.00
2023-04-10T00:04:39.045Z,100.00
2023-04-10T00:08:39.007Z,100.00
2023-04-10T00:12:38.032Z,100.00
2023-04-10T00:16:36.065Z,100.00
2023-04-10T00:20:34.010Z,100.00
2023-04-10T00:24:32.059Z,100.00
2023-04-10T00:28:29.967Z,100.00
2023-04-10T00:32:27.937Z,100.00
2023-04-10T00:36:26.086Z,100.00
2023-04-10T00:40:23.920Z,100.00
2023-04-10T00:44:21.936Z,100.00
2023-04-10T00:48:19.916Z,100.00
2023-04-10T00:52:18.004Z,100.00
2023-04-10T00:56:16.897Z,100.00
2023-04-10T01:00:14.977Z,100.00
2023-04-10T01:04:13.174Z,100.00
2023-04-10T01:08:40.947Z,100.00
2023-04-10T01:12:56.941Z,100.00
2023-04-10T01:17:15.918Z,100.00
2023-04-10T01:21:16.877Z,100.00
2023-04-10T01:25:44.949Z,100.00
2023-04-10T01:29:44.873Z,100.00
2023-04-10T01:33:53.184Z,100.00
2023-04-10T01:37:54.964Z,100.00
2023-04-10T01:41:55.870Z,100.00
2023-04-10T01:46:13.884Z,100.00
2023-04-10T01:50:12.923Z,100.00
2023-04-10T01:54:10.849Z,100.00
2023-04-10T01:58:08.889Z,100.00
2023-04-10T02:02:13.874Z,100.00
2023-04-10T02:06:28.857Z,100.00
2023-04-10T02:10:46.810Z,100.00
2023-04-10T02:14:46.839Z,100.00
2023-04-10T02:18:47.802Z,100.00
2023-04-10T02:22:45.844Z,100.00
2023-04-10T02:26:43.828Z,100.00
2023-04-10T02:30:41.863Z,100.00
2023-04-10T02:34:39.735Z,100.00
2023-04-10T02:38:37.856Z,100.00
2023-04-10T02:42:35.747Z,100.00
2023-04-10T02:46:33.871Z,100.00
2023-04-10T02:50:31.790Z,100.00
2023-04-10T02:54:29.791Z,100.00
2023-04-10T02:58:28.787Z,100.00
2023-04-10T03:02:27.057Z,100.00
2023-04-10T03:06:29.724Z,100.00
2023-04-10T03:10:27.849Z,100.00
2023-04-10T03:14:25.809Z,100.00
2023-04-10T03:18:23.740Z,100.00
2023-04-10T03:22:21.767Z,100.00
2023-04-10T03:26:20.771Z,100.00
2023-04-10T03:30:18.747Z,100.00
2023-04-10T03:34:16.829Z,100.00
2023-04-10T03:38:14.812Z,100.00
2023-04-10T03:42:12.723Z,100.00
2023-04-10T03:46:10.697Z,100.00
2023-04-10T03:50:08.744Z,100.00
2023-04-10T03:54:11.750Z,100.00
2023-04-10T03:58:09.732Z,100.00
2023-04-10T04:02:07.908Z,100.00
2023-04-10T04:06:06.678Z,100.00
2023-04-10T04:10:21.761Z,100.00
2023-04-10T04:14:45.676Z,100.00
2023-04-10T04:19:02.618Z,100.00
2023-04-10T04:23:08.677Z,100.00
2023-04-10T04:27:29.654Z,100.00
2023-04-10T04:31:45.670Z,100.00
2023-04-10T04:36:01.624Z,100.00
2023-04-10T04:40:10.660Z,100.00
2023-04-10T04:44:24.580Z,100.00
2023-04-10T04:48:44.641Z,100.00
2023-04-10T04:53:06.077Z,100.00
2023-04-10T04:57:24.664Z,100.00
2023-04-10T05:01:45.725Z,100.00
2023-04-10T05:06:07.578Z,100.00
2023-04-10T05:10:34.565Z,100.00
2023-04-10T05:14:44.605Z,100.00
2023-04-10T05:18:51.681Z,100.00
2023-04-10T05:23:09.581Z,100.00
2023-04-10T05:27:32.531Z,100.00
2023-04-10T05:31:55.549Z,100.00
2023-04-10T05:36:11.596Z,100.00
2023-04-10T05:40:20.641Z,100.00
2023-04-10T05:44:36.552Z,100.00
2023-04-10T05:48:50.539Z,100.00
2023-04-10T05:53:07.622Z,100.00
2023-04-10T05:57:21.559Z,100.00
2023-04-10T06:01:09.059Z,100.00
2023-04-10T06:04:39.513Z,100.00
2023-04-10T06:08:03.686Z,100.00
2023-04-10T06:11:27.719Z,100.00
2023-04-10T06:14:52.612Z,100.00
2023-04-10T06:18:20.860Z,100.00
2023-04-10T06:21:45.523Z,100.00
2023-04-10T06:25:09.962Z,100.00
2023-04-10T06:28:33.991Z,100.00
2023-04-10T06:31:58.920Z,100.00
2023-04-10T06:35:25.052Z,100.00
2023-04-10T06:38:48.968Z,100.00
2023-04-10T06:42:12.858Z,100.00
2023-04-10T06:45:51.032Z,100.00
2023-04-10T06:49:15.154Z,100.00
2023-04-10T06:52:39.157Z,100.00
2023-04-10T06:56:03.771Z,100.00
2023-04-10T06:59:27.828Z,100.00
2023-04-10T07:02:51.646Z,100.00
2023-04-10T07:06:15.703Z,100.00
2023-04-10T07:09:39.469Z,100.00
2023-04-10T07:13:03.286Z,100.00
2023-04-10T07:16:29.528Z,100.00
2023-04-10T07:19:53.571Z,100.00
2023-04-10T07:23:17.472Z,100.00
2023-04-10T07:26:43.525Z,100.00
2023-04-10T07:30:08.022Z,100.00
2023-04-10T07:33:31.867Z,100.00
2023-04-10T07:36:55.673Z,100.00
2023-04-10T07:40:19.620Z,100.00
2023-04-10T07:43:43.497Z,100.00
2023-04-10T07:47:07.313Z,100.00
2023-04-10T07:50:31.580Z,100.00
2023-04-10T07:53:55.938Z,100.00
2023-04-10T07:57:19.683Z,100.00
2023-04-10T08:00:43.868Z,100.00
2023-04-10T08:04:07.781Z,100.00
2023-04-10T08:07:31.662Z,100.00
2023-04-10T08:10:55.576Z,100.00
2023-04-10T08:14:19.459Z,100.00
2023-04-10T08:17:43.301Z,100.00
2023-04-10T08:21:07.947Z,100.00
2023-04-10T08:24:31.783Z,100.00
2023-04-10T08:27:55.616Z,100.00
2023-04-10T08:31:20.831Z,100.00
2023-04-10T08:34:44.686Z,100.00
2023-04-10T08:38:14.157Z,100.00
2023-04-10T08:41:38.563Z,100.00
2023-04-10T08:45:02.407Z,100.00
2023-04-10T08:48:32.883Z,100.00
2023-04-10T08:52:21.322Z,100.00
2023-04-10T08:56:21.340Z,100.00
2023-04-10T09:00:23.402Z,100.00
2023-04-10T09:04:21.466Z,100.00
2023-04-10T09:08:21.321Z,100.00
2023-04-10T09:12:19.316Z,100.00
2023-04-10T09:16:17.322Z,100.00
2023-04-10T09:20:15.458Z,100.00
2023-04-10T09:24:16.304Z,100.00
2023-04-10T09:28:24.374Z,100.00
2023-04-10T09:32:22.326Z,100.00
2023-04-10T09:36:27.327Z,100.00
2023-04-10T09:40:39.353Z,100.00
2023-04-10T09:44:45.348Z,100.00
2023-04-10T09:48:43.284Z,100.00
2023-04-10T09:52:50.284Z,100.00
2023-04-10T09:56:52.316Z,100.00
2023-04-10T10:01:01.274Z,100.00
2023-04-10T10:05:00.336Z,100.00
2023-04-10T10:08:59.246Z,100.00
2023-04-10T10:13:09.238Z,100.00
2023-04-10T10:17:13.236Z,100.00
2023-04-10T10:21:11.247Z,100.00
2023-04-10T10:25:11.223Z,100.00
2023-04-10T10:29:11.277Z,100.00
2023-04-10T10:33:09.313Z,100.00
2023-04-10T10:37:07.200Z,100.00
2023-04-10T10:41:27.232Z,100.00
2023-04-10T10:45:32.432Z,96.22
2023-04-10T10:49:30.310Z,95.14
2023-04-10T10:53:47.187Z,91.39
2023-04-10T10:58:09.408Z,86.66
2023-04-10T11:02:27.349Z,85.87
2023-04-10T11:06:27.192Z,84.41
2023-04-10T11:10:25.232Z,78.56
2023-04-10T11:14:24.221Z,78.23
2023-04-10T11:18:22.200Z,77.71
2023-04-10T11:22:22.191Z,74.82
2023-04-10T11:26:20.154Z,75.96
2023-04-10T11:30:18.187Z,74.72
2023-04-10T11:34:23.169Z,74.84
2023-04-10T11:38:29.275Z,75.32
2023-04-10T11:42:27.132Z,71.91
2023-04-10T11:46:25.298Z,71.68
2023-04-10T11:50:25.168Z,70.30
2023-04-10T11:54:28.226Z,67.77
2023-04-10T11:58:43.167Z,66.93
2023-04-10T12:02:41.241Z,66.02
2023-04-10T12:06:39.102Z,66.51
2023-04-10T12:10:37.170Z,65.91
2023-04-10T12:14:37.100Z,65.19
2023-04-10T12:18:37.238Z,61.02
2023-04-10T12:22:36.113Z,58.17
2023-04-10T12:26:34.218Z,60.04
2023-04-10T12:30:32.094Z,61.00
2023-04-10T12:34:33.141Z,62.20
2023-04-10T12:38:31.128Z,61.90
2023-04-10T12:42:31.154Z,61.78
2023-04-10T12:46:39.179Z,59.12
2023-04-10T12:50:37.149Z,59.29
2023-04-10T12:54:43.072Z,60.96
2023-04-10T12:58:42.170Z,64.64
2023-04-10T13:02:42.280Z,64.98
2023-04-10T13:06:40.054Z,66.99
2023-04-10T13:10:38.138Z,64.47
2023-04-10T13:14:36.105Z,65.73
2023-04-10T13:18:34.074Z,66.24
2023-04-10T13:22:32.087Z,69.73
2023-04-10T13:26:30.022Z,70.63
2023-04-10T13:30:28.046Z,71.36
2023-04-10T13:34:26.180Z,70.86
2023-04-10T13:38:24.160Z,68.36
2023-04-10T13:42:22.149Z,66.25
2023-04-10T13:46:21.159Z,65.64
2023-04-10T13:50:19.118Z,66.54
2023-04-10T13:54:18.059Z,67.32
2023-04-10T13:58:16.014Z,68.03
2023-04-10T14:02:14.365Z,73.07
2023-04-10T14:06:12.056Z,75.79
2023-04-10T14:10:10.013Z,76.72
2023-04-10T14:14:08.023Z,81.16
2023-04-10T14:18:06.102Z,93.23
2023-04-10T14:22:04.084Z,93.16
2023-04-10T14:26:04.108Z,95.34
2023-04-10T14:30:01.963Z,97.50
2023-04-10T14:34:00.009Z,100.00
2023-04-10T14:37:57.941Z,100.00
2023-04-10T14:41:56.014Z,98.52
2023-04-10T14:45:53.958Z,95.84
2023-04-10T14:49:52.082Z,95.49
2023-04-10T14:53:50.090Z,95.50
2023-04-10T14:57:48.018Z,96.65
2023-04-10T15:01:46.086Z,94.66
2023-04-10T15:05:44.047Z,95.95
2023-04-10T15:09:41.937Z,99.85
2023-04-10T15:13:40.057Z,100.00
2023-04-10T15:17:37.975Z,100.00
2023-04-10T15:21:36.263Z,100.00
2023-04-10T15:25:33.932Z,100.00
2023-04-10T15:29:32.987Z,99.45
2023-04-10T15:33:33.130Z,96.95
2023-04-10T15:37:31.895Z,98.95
2023-04-10T15:41:29.904Z,100.00
2023-04-10T15:45:27.941Z,99.66
2023-04-10T15:49:36.232Z,100.00
2023-04-10T15:53:34.941Z,100.00
2023-04-10T15:57:32.850Z,100.00
2023-04-10T16:01:30.936Z,100.00
2023-04-10T16:05:29.867Z,100.00
2023-04-10T16:09:27.959Z,100.00
2023-04-10T16:13:25.908Z,100.00
2023-04-10T16:17:24.938Z,100.00
2023-04-10T16:21:22.823Z,100.00
2023-04-10T16:25:21.829Z,100.00
2023-04-10T16:29:19.851Z,100.00
2023-04-10T16:33:17.904Z,100.00
2023-04-10T16:37:15.862Z,100.00
2023-04-10T16:41:16.826Z,100.00
2023-04-10T16:45:14.831Z,100.00
2023-04-10T16:49:12.834Z,100.00
2023-04-10T16:53:10.820Z,100.00
2023-04-10T16:57:08.901Z,100.00
2023-04-10T17:01:06.810Z,99.98
2023-04-10T17:05:04.825Z,100.00
2023-04-10T17:09:02.792Z,100.00
2023-04-10T17:12:41.132Z,100.00
2023-04-10T17:16:06.364Z,100.00
2023-04-10T17:19:31.796Z,100.00
2023-04-10T17:22:56.082Z,100.00
2023-04-10T17:26:23.338Z,100.00
2023-04-10T17:29:47.635Z,100.00
2023-04-10T17:33:11.525Z,100.00
2023-04-10T17:36:35.695Z,100.00
2023-04-10T17:40:19.768Z,100.00
2023-04-10T17:44:17.741Z,100.00
2023-04-10T17:48:15.851Z,100.00
2023-04-10T17:52:13.780Z,100.00
2023-04-10T17:56:11.824Z,100.00
2023-04-10T18:00:09.733Z,100.00
2023-04-10T18:04:09.789Z,100.00
2023-04-10T18:08:09.793Z,100.00
2023-04-10T18:12:07.763Z,100.00
2023-04-10T18:16:05.842Z,100.00
2023-04-10T18:20:04.787Z,100.00
2023-04-10T18:24:02.737Z,100.00
2023-04-10T18:32:01.801Z,100.00
2023-04-10T18:35:59.898Z,100.00
2023-04-10T18:40:03.428Z,100.00
2023-04-10T18:44:05.755Z,100.00
2023-04-10T18:48:04.738Z,100.00
2023-04-10T18:52:03.736Z,100.00
2023-04-10T18:56:08.777Z,100.00
2023-04-10T19:00:08.697Z,100.00
2023-04-10T19:04:06.877Z,100.00
2023-04-10T19:08:05.158Z,100.00
2023-04-10T19:12:03.629Z,100.00
2023-04-10T19:16:02.790Z,100.00
2023-04-10T19:20:01.662Z,100.00
2023-04-10T19:23:59.747Z,100.00
2023-04-10T19:27:58.857Z,100.00
2023-04-10T19:31:56.633Z,100.00
2023-04-10T19:35:54.635Z,100.00
2023-04-10T19:39:52.652Z,100.00
2023-04-10T19:43:50.696Z,100.00
2023-04-10T19:47:48.642Z,100.00
2023-04-10T19:51:46.627Z,100.00
2023-04-10T19:55:44.606Z,100.00
2023-04-10T19:59:44.599Z,100.00
2023-04-10T20:03:43.703Z,100.00
2023-04-10T20:07:41.657Z,100.00
2023-04-10T20:11:40.731Z,100.00
2023-04-10T20:15:38.548Z,100.00
2023-04-10T20:19:36.615Z,100.00
2023-04-10T20:23:34.545Z,100.00
2023-04-10T20:27:33.034Z,100.00
2023-04-10T20:31:32.137Z,100.00
2023-04-10T20:35:31.683Z,100.00
2023-04-10T20:39:31.600Z,100.00
2023-04-10T20:43:29.665Z,100.00
2023-04-10T20:47:29.635Z,100.00
2023-04-10T20:51:27.595Z,100.00
2023-04-10T20:55:25.551Z,100.00
2023-04-10T20:59:23.531Z,100.00
2023-04-10T21:03:21.658Z,100.00
2023-04-10T21:07:19.530Z,100.00
2023-04-10T21:11:17.507Z,100.00
2023-04-10T21:15:15.550Z,100.00
2023-04-10T21:19:13.555Z,100.00
2023-04-10T21:23:11.630Z,100.00
2023-04-10T21:27:09.517Z,100.00
2023-04-10T21:31:07.682Z,100.00
2023-04-10T21:35:05.451Z,100.00
2023-04-10T21:39:03.535Z,100.00
2023-04-10T21:43:01.524Z,100.00
2023-04-10T21:46:59.500Z,100.00
2023-04-10T21:50:59.508Z,100.00
2023-04-10T21:54:59.538Z,100.00
2023-04-10T21:58:59.454Z,100.00
2023-04-10T22:02:57.622Z,100.00
2023-04-10T22:06:48.568Z,100.00
2023-04-10T22:10:46.534Z,100.00
2023-04-10T22:14:44.381Z,100.00
2023-04-10T22:18:42.537Z,100.00
2023-04-10T22:22:40.470Z,100.00
2023-04-10T22:26:39.471Z,100.00
2023-04-10T22:30:37.463Z,100.00
2023-04-10T22:34:35.530Z,100.00
2023-04-10T22:38:33.409Z,100.00
2023-04-10T22:42:32.030Z,100.00
2023-04-10T22:46:30.374Z,100.00
2023-04-10T22:50:28.420Z,100.00
2023-04-10T22:54:28.600Z,100.00
2023-04-10T22:58:26.482Z,100.00
2023-04-10T23:02:24.453Z,100.00
2023-04-10T23:06:22.442Z,100.00
2023-04-10T23:10:21.360Z,100.00
2023-04-10T23:14:19.344Z,100.00
2023-04-10T23:18:18.341Z,100.00
2023-04-10T23:22:16.368Z,100.00
2023-04-10T23:26:15.316Z,100.00
2023-04-10T23:30:13.365Z,100.00
2023-04-10T23:34:11.359Z,100.00
2023-04-10T23:38:09.441Z,100.00
2023-04-10T23:42:07.422Z,100.00
2023-04-10T23:46:05.371Z,100.00
2023-04-10T23:50:03.382Z,100.00
2023-04-10T23:54:01.300Z,100.00
2023-04-10T23:57:59.334Z,100.00
